sensor_id;sensor_type;location;lat;lon;timestamp;P1;durP1;ratioP1;P2;durP2;ratioP2
8488;SDS011;4281;45.772;12.852;2023-09-19T00:00:21;13.60;;;12.43;;
8488;SDS011;4281;45.772;12.852;2023-09-19T00:02:53;14.00;;;12.80;;
8488;SDS011;4281;45.772;12.852;2023-09-19T00:05:21;14.20;;;12.90;;
8488;SDS011;4281;45.772;12.852;2023-09-19T00:07:50;12.73;;;11.70;;
8488;SDS011;4281;45.772;12.852;2023-09-19T00:10:20;13.27;;;12.07;;
8488;SDS011;4281;45.772;12.852;2023-09-19T00:12:51;12.97;;;11.87;;
8488;SDS011;4281;45.772;12.852;2023-09-19T00:15:22;13.30;;;12.10;;
8488;SDS011;4281;45.772;12.852;2023-09-19T00:17:51;13.47;;;12.20;;
8488;SDS011;4281;45.772;12.852;2023-09-19T00:20:19;12.90;;;11.80;;
8488;SDS011;4281;45.772;12.852;2023-09-19T00:22:49;12.03;;;11.03;;
8488;SDS011;4281;45.772;12.852;2023-09-19T00:25:18;13.03;;;11.83;;
8488;SDS011;4281;45.772;12.852;2023-09-19T00:27:47;13.03;;;11.90;;
8488;SDS011;4281;45.772;12.852;2023-09-19T00:30:19;13.17;;;11.87;;
8488;SDS011;4281;45.772;12.852;2023-09-19T00:32:48;13.20;;;12.00;;
8488;SDS011;4281;45.772;12.852;2023-09-19T00:35:16;14.53;;;13.20;;
8488;SDS011;4281;45.772;12.852;2023-09-19T00:37:45;13.40;;;12.30;;
8488;SDS011;4281;45.772;12.852;2023-09-19T00:40:13;14.30;;;13.00;;
8488;SDS011;4281;45.772;12.852;2023-09-19T00:42:42;14.60;;;13.23;;
8488;SDS011;4281;45.772;12.852;2023-09-19T00:45:10;14.57;;;13.23;;
8488;SDS011;4281;45.772;12.852;2023-09-19T00:47:40;15.00;;;13.57;;
8488;SDS011;4281;45.772;12.852;2023-09-19T00:50:16;14.87;;;13.57;;
8488;SDS011;4281;45.772;12.852;2023-09-19T00:52:46;15.53;;;14.10;;
8488;SDS011;4281;45.772;12.852;2023-09-19T00:55:16;15.40;;;14.00;;
8488;SDS011;4281;45.772;12.852;2023-09-19T00:57:46;15.83;;;14.37;;
8488;SDS011;4281;45.772;12.852;2023-09-19T01:00:16;16.17;;;14.57;;
8488;SDS011;4281;45.772;12.852;2023-09-19T01:02:48;15.83;;;14.53;;
8488;SDS011;4281;45.772;12.852;2023-09-19T01:05:16;16.43;;;14.90;;
8488;SDS011;4281;45.772;12.852;2023-09-19T01:07:45;16.07;;;14.57;;
8488;SDS011;4281;45.772;12.852;2023-09-19T01:10:15;16.00;;;14.63;;
8488;SDS011;4281;45.772;12.852;2023-09-19T01:12:48;15.83;;;14.33;;
8488;SDS011;4281;45.772;12.852;2023-09-19T01:15:28;15.60;;;13.67;;
8488;SDS011;4281;45.772;12.852;2023-09-19T01:18:11;14.30;;;13.00;;
8488;SDS011;4281;45.772;12.852;2023-09-19T01:20:50;14.57;;;13.03;;
8488;SDS011;4281;45.772;12.852;2023-09-19T01:23:23;14.47;;;13.00;;
8488;SDS011;4281;45.772;12.852;2023-09-19T01:26:07;13.87;;;12.67;;
8488;SDS011;4281;45.772;12.852;2023-09-19T01:28:48;13.07;;;11.87;;
8488;SDS011;4281;45.772;12.852;2023-09-19T01:31:23;13.57;;;12.47;;
8488;SDS011;4281;45.772;12.852;2023-09-19T01:33:59;13.83;;;12.57;;
8488;SDS011;4281;45.772;12.852;2023-09-19T01:36:28;13.20;;;12.00;;
8488;SDS011;4281;45.772;12.852;2023-09-19T01:39:00;12.93;;;11.73;;
8488;SDS011;4281;45.772;12.852;2023-09-19T01:41:44;12.93;;;11.83;;
8488;SDS011;4281;45.772;12.852;2023-09-19T01:44:17;13.43;;;12.13;;
8488;SDS011;4281;45.772;12.852;2023-09-19T01:46:50;13.33;;;12.13;;
8488;SDS011;4281;45.772;12.852;2023-09-19T01:49:22;14.53;;;13.03;;
8488;SDS011;4281;45.772;12.852;2023-09-19T01:51:56;13.33;;;12.17;;
8488;SDS011;4281;45.772;12.852;2023-09-19T01:54:31;13.33;;;12.13;;
8488;SDS011;4281;45.772;12.852;2023-09-19T01:57:05;13.50;;;12.40;;
8488;SDS011;4281;45.772;12.852;2023-09-19T01:59:36;13.53;;;12.33;;
8488;SDS011;4281;45.772;12.852;2023-09-19T02:02:08;13.63;;;12.33;;
8488;SDS011;4281;45.772;12.852;2023-09-19T02:04:37;13.70;;;12.57;;
8488;SDS011;4281;45.772;12.852;2023-09-19T02:07:05;12.67;;;11.57;;
8488;SDS011;4281;45.772;12.852;2023-09-19T02:09:34;12.60;;;11.40;;
8488;SDS011;4281;45.772;12.852;2023-09-19T02:12:05;12.47;;;11.47;;
8488;SDS011;4281;45.772;12.852;2023-09-19T02:14:34;12.67;;;11.57;;
8488;SDS011;4281;45.772;12.852;2023-09-19T02:17:02;11.43;;;10.60;;
8488;SDS011;4281;45.772;12.852;2023-09-19T02:19:34;11.93;;;10.87;;
8488;SDS011;4281;45.772;12.852;2023-09-19T02:22:05;11.13;;;10.13;;
8488;SDS011;4281;45.772;12.852;2023-09-19T02:24:36;11.07;;;10.27;;
8488;SDS011;4281;45.772;12.852;2023-09-19T02:27:04;11.90;;;10.80;;
8488;SDS011;4281;45.772;12.852;2023-09-19T02:29:33;11.50;;;10.50;;
8488;SDS011;4281;45.772;12.852;2023-09-19T02:32:01;11.67;;;10.67;;
8488;SDS011;4281;45.772;12.852;2023-09-19T02:34:31;10.77;;;9.97;;
8488;SDS011;4281;45.772;12.852;2023-09-19T02:37:00;10.90;;;9.90;;
8488;SDS011;4281;45.772;12.852;2023-09-19T02:39:31;10.53;;;9.63;;
8488;SDS011;4281;45.772;12.852;2023-09-19T02:41:59;10.47;;;9.57;;
8488;SDS011;4281;45.772;12.852;2023-09-19T02:44:27;10.13;;;9.27;;
8488;SDS011;4281;45.772;12.852;2023-09-19T02:46:55;10.53;;;9.73;;
8488;SDS011;4281;45.772;12.852;2023-09-19T02:49:23;10.37;;;9.47;;
8488;SDS011;4281;45.772;12.852;2023-09-19T02:51:51;10.50;;;9.73;;
8488;SDS011;4281;45.772;12.852;2023-09-19T02:54:20;10.13;;;9.27;;
8488;SDS011;4281;45.772;12.852;2023-09-19T02:56:49;10.63;;;9.83;;
8488;SDS011;4281;45.772;12.852;2023-09-19T02:59:17;10.47;;;9.60;;
8488;SDS011;4281;45.772;12.852;2023-09-19T03:01:45;11.40;;;10.50;;
8488;SDS011;4281;45.772;12.852;2023-09-19T03:04:14;10.20;;;9.23;;
8488;SDS011;4281;45.772;12.852;2023-09-19T03:06:46;10.50;;;9.53;;
8488;SDS011;4281;45.772;12.852;2023-09-19T03:09:17;10.83;;;9.93;;
8488;SDS011;4281;45.772;12.852;2023-09-19T03:11:47;10.93;;;10.03;;
8488;SDS011;4281;45.772;12.852;2023-09-19T03:14:15;10.70;;;9.77;;
8488;SDS011;4281;45.772;12.852;2023-09-19T03:16:43;10.23;;;9.43;;
8488;SDS011;4281;45.772;12.852;2023-09-19T03:19:11;10.27;;;9.47;;
8488;SDS011;4281;45.772;12.852;2023-09-19T03:21:41;9.60;;;8.73;;
8488;SDS011;4281;45.772;12.852;2023-09-19T03:24:09;9.70;;;9.00;;
8488;SDS011;4281;45.772;12.852;2023-09-19T03:26:37;10.80;;;9.80;;
8488;SDS011;4281;45.772;12.852;2023-09-19T03:29:07;10.80;;;9.90;;
8488;SDS011;4281;45.772;12.852;2023-09-19T03:31:36;11.23;;;10.23;;
8488;SDS011;4281;45.772;12.852;2023-09-19T03:34:04;10.20;;;9.40;;
8488;SDS011;4281;45.772;12.852;2023-09-19T03:36:32;9.73;;;8.93;;
8488;SDS011;4281;45.772;12.852;2023-09-19T03:39:00;10.07;;;9.20;;
8488;SDS011;4281;45.772;12.852;2023-09-19T03:41:31;10.57;;;9.63;;
8488;SDS011;4281;45.772;12.852;2023-09-19T03:44:02;10.00;;;9.23;;
8488;SDS011;4281;45.772;12.852;2023-09-19T03:46:32;10.90;;;9.87;;
8488;SDS011;4281;45.772;12.852;2023-09-19T03:49:02;9.57;;;8.73;;
8488;SDS011;4281;45.772;12.852;2023-09-19T03:51:30;10.37;;;9.50;;
8488;SDS011;4281;45.772;12.852;2023-09-19T03:54:00;10.57;;;9.77;;
8488;SDS011;4281;45.772;12.852;2023-09-19T03:56:29;10.30;;;9.40;;
8488;SDS011;4281;45.772;12.852;2023-09-19T03:58:59;11.00;;;10.10;;
8488;SDS011;4281;45.772;12.852;2023-09-19T04:01:27;11.00;;;10.10;;
8488;SDS011;4281;45.772;12.852;2023-09-19T04:03:58;10.63;;;9.83;;
8488;SDS011;4281;45.772;12.852;2023-09-19T04:06:34;11.37;;;10.37;;
8488;SDS011;4281;45.772;12.852;2023-09-19T04:09:02;11.23;;;10.30;;
8488;SDS011;4281;45.772;12.852;2023-09-19T04:11:33;10.90;;;10.00;;
8488;SDS011;4281;45.772;12.852;2023-09-19T04:14:02;11.50;;;10.50;;
8488;SDS011;4281;45.772;12.852;2023-09-19T04:16:31;10.57;;;9.67;;
8488;SDS011;4281;45.772;12.852;2023-09-19T04:19:00;11.60;;;10.67;;
8488;SDS011;4281;45.772;12.852;2023-09-19T04:21:29;12.13;;;11.10;;
8488;SDS011;4281;45.772;12.852;2023-09-19T04:23:58;12.50;;;11.30;;
8488;SDS011;4281;45.772;12.852;2023-09-19T04:26:26;12.57;;;11.37;;
8488;SDS011;4281;45.772;12.852;2023-09-19T04:28:54;11.37;;;10.37;;
8488;SDS011;4281;45.772;12.852;2023-09-19T04:31:22;12.50;;;11.50;;
8488;SDS011;4281;45.772;12.852;2023-09-19T04:33:50;11.93;;;10.93;;
8488;SDS011;4281;45.772;12.852;2023-09-19T04:36:20;11.77;;;10.67;;
8488;SDS011;4281;45.772;12.852;2023-09-19T04:39:01;11.77;;;10.70;;
8488;SDS011;4281;45.772;12.852;2023-09-19T04:41:31;11.77;;;10.73;;
8488;SDS011;4281;45.772;12.852;2023-09-19T04:43:59;12.50;;;11.50;;
8488;SDS011;4281;45.772;12.852;2023-09-19T04:46:27;11.73;;;10.83;;
8488;SDS011;4281;45.772;12.852;2023-09-19T04:48:55;12.47;;;11.40;;
8488;SDS011;4281;45.772;12.852;2023-09-19T04:51:25;12.47;;;11.37;;
8488;SDS011;4281;45.772;12.852;2023-09-19T04:53:57;13.50;;;12.20;;
8488;SDS011;4281;45.772;12.852;2023-09-19T04:56:25;12.73;;;11.60;;
8488;SDS011;4281;45.772;12.852;2023-09-19T04:58:54;12.20;;;11.20;;
8488;SDS011;4281;45.772;12.852;2023-09-19T05:01:24;11.33;;;10.33;;
8488;SDS011;4281;45.772;12.852;2023-09-19T05:03:53;11.87;;;10.87;;
8488;SDS011;4281;45.772;12.852;2023-09-19T05:06:21;10.03;;;9.33;;
8488;SDS011;4281;45.772;12.852;2023-09-19T05:08:51;10.67;;;9.77;;
8488;SDS011;4281;45.772;12.852;2023-09-19T05:11:19;10.17;;;9.43;;
8488;SDS011;4281;45.772;12.852;2023-09-19T05:13:49;10.43;;;9.73;;
8488;SDS011;4281;45.772;12.852;2023-09-19T05:16:19;10.47;;;9.77;;
8488;SDS011;4281;45.772;12.852;2023-09-19T05:18:48;10.33;;;9.57;;
8488;SDS011;4281;45.772;12.852;2023-09-19T05:21:17;10.50;;;9.70;;
8488;SDS011;4281;45.772;12.852;2023-09-19T05:23:45;9.80;;;9.10;;
8488;SDS011;4281;45.772;12.852;2023-09-19T05:26:15;10.40;;;9.60;;
8488;SDS011;4281;45.772;12.852;2023-09-19T05:28:43;10.20;;;9.50;;
8488;SDS011;4281;45.772;12.852;2023-09-19T05:31:11;10.03;;;9.27;;
8488;SDS011;4281;45.772;12.852;2023-09-19T05:33:39;9.80;;;9.10;;
8488;SDS011;4281;45.772;12.852;2023-09-19T05:36:07;9.83;;;9.20;;
8488;SDS011;4281;45.772;12.852;2023-09-19T05:38:37;10.43;;;9.73;;
8488;SDS011;4281;45.772;12.852;2023-09-19T05:41:07;10.13;;;9.37;;
8488;SDS011;4281;45.772;12.852;2023-09-19T05:43:36;9.47;;;8.77;;
8488;SDS011;4281;45.772;12.852;2023-09-19T05:46:05;10.03;;;9.23;;
8488;SDS011;4281;45.772;12.852;2023-09-19T05:48:34;9.90;;;9.27;;
8488;SDS011;4281;45.772;12.852;2023-09-19T05:51:02;10.23;;;9.53;;
8488;SDS011;4281;45.772;12.852;2023-09-19T05:53:30;10.33;;;9.53;;
8488;SDS011;4281;45.772;12.852;2023-09-19T05:55:58;10.20;;;9.50;;
8488;SDS011;4281;45.772;12.852;2023-09-19T05:58:27;10.03;;;9.23;;
8488;SDS011;4281;45.772;12.852;2023-09-19T06:00:56;10.43;;;9.67;;
8488;SDS011;4281;45.772;12.852;2023-09-19T06:03:25;10.53;;;9.80;;
8488;SDS011;4281;45.772;12.852;2023-09-19T06:05:53;10.17;;;9.37;;
8488;SDS011;4281;45.772;12.852;2023-09-19T06:08:23;10.53;;;9.73;;
8488;SDS011;4281;45.772;12.852;2023-09-19T06:10:52;11.53;;;10.63;;
8488;SDS011;4281;45.772;12.852;2023-09-19T06:13:20;11.10;;;10.30;;
8488;SDS011;4281;45.772;12.852;2023-09-19T06:15:48;11.00;;;10.03;;
8488;SDS011;4281;45.772;12.852;2023-09-19T06:18:18;10.27;;;9.40;;
8488;SDS011;4281;45.772;12.852;2023-09-19T06:20:46;10.77;;;9.97;;
8488;SDS011;4281;45.772;12.852;2023-09-19T06:23:15;12.20;;;11.30;;
8488;SDS011;4281;45.772;12.852;2023-09-19T06:25:43;12.97;;;11.97;;
8488;SDS011;4281;45.772;12.852;2023-09-19T06:28:11;12.40;;;11.33;;
8488;SDS011;4281;45.772;12.852;2023-09-19T06:30:39;14.03;;;12.77;;
8488;SDS011;4281;45.772;12.852;2023-09-19T06:33:09;16.43;;;14.80;;
8488;SDS011;4281;45.772;12.852;2023-09-19T06:35:39;17.10;;;15.60;;
8488;SDS011;4281;45.772;12.852;2023-09-19T06:38:08;17.20;;;15.50;;
8488;SDS011;4281;45.772;12.852;2023-09-19T06:40:39;16.13;;;14.67;;
8488;SDS011;4281;45.772;12.852;2023-09-19T06:43:09;16.63;;;15.13;;
8488;SDS011;4281;45.772;12.852;2023-09-19T06:45:37;17.20;;;15.70;;
8488;SDS011;4281;45.772;12.852;2023-09-19T06:48:05;17.23;;;15.77;;
8488;SDS011;4281;45.772;12.852;2023-09-19T06:50:33;17.17;;;15.77;;
8488;SDS011;4281;45.772;12.852;2023-09-19T06:53:03;19.73;;;17.93;;
8488;SDS011;4281;45.772;12.852;2023-09-19T06:55:31;19.77;;;18.07;;
8488;SDS011;4281;45.772;12.852;2023-09-19T06:58:00;20.57;;;18.53;;
8488;SDS011;4281;45.772;12.852;2023-09-19T07:00:28;20.17;;;18.27;;
8488;SDS011;4281;45.772;12.852;2023-09-19T07:02:58;20.00;;;18.00;;
8488;SDS011;4281;45.772;12.852;2023-09-19T07:05:28;21.53;;;19.63;;
8488;SDS011;4281;45.772;12.852;2023-09-19T07:07:56;22.17;;;20.03;;
8488;SDS011;4281;45.772;12.852;2023-09-19T07:10:26;21.43;;;19.50;;
8488;SDS011;4281;45.772;12.852;2023-09-19T07:12:55;21.93;;;19.93;;
8488;SDS011;4281;45.772;12.852;2023-09-19T07:15:25;21.73;;;19.57;;
8488;SDS011;4281;45.772;12.852;2023-09-19T07:17:53;22.20;;;20.00;;
8488;SDS011;4281;45.772;12.852;2023-09-19T07:20:23;23.03;;;20.83;;
8488;SDS011;4281;45.772;12.852;2023-09-19T07:22:53;22.03;;;19.77;;
8488;SDS011;4281;45.772;12.852;2023-09-19T07:25:21;23.30;;;21.07;;
8488;SDS011;4281;45.772;12.852;2023-09-19T07:27:51;23.50;;;21.30;;
8488;SDS011;4281;45.772;12.852;2023-09-19T07:30:19;24.37;;;22.07;;
8488;SDS011;4281;45.772;12.852;2023-09-19T07:32:47;24.13;;;21.67;;
8488;SDS011;4281;45.772;12.852;2023-09-19T07:35:15;23.57;;;21.33;;
8488;SDS011;4281;45.772;12.852;2023-09-19T07:37:43;22.13;;;20.03;;
8488;SDS011;4281;45.772;12.852;2023-09-19T07:40:16;22.30;;;20.10;;
8488;SDS011;4281;45.772;12.852;2023-09-19T07:42:44;20.47;;;18.57;;
8488;SDS011;4281;45.772;12.852;2023-09-19T07:45:15;20.20;;;18.30;;
8488;SDS011;4281;45.772;12.852;2023-09-19T07:47:43;19.80;;;17.90;;
8488;SDS011;4281;45.772;12.852;2023-09-19T07:50:13;20.30;;;18.40;;
8488;SDS011;4281;45.772;12.852;2023-09-19T07:52:43;18.73;;;16.93;;
8488;SDS011;4281;45.772;12.852;2023-09-19T07:55:11;17.73;;;16.07;;
8488;SDS011;4281;45.772;12.852;2023-09-19T07:57:43;18.40;;;16.50;;
8488;SDS011;4281;45.772;12.852;2023-09-19T08:00:12;18.77;;;16.80;;
8488;SDS011;4281;45.772;12.852;2023-09-19T08:02:42;19.33;;;17.37;;
8488;SDS011;4281;45.772;12.852;2023-09-19T08:05:13;19.00;;;17.00;;
8488;SDS011;4281;45.772;12.852;2023-09-19T08:07:43;19.80;;;16.53;;
8488;SDS011;4281;45.772;12.852;2023-09-19T08:10:15;18.63;;;16.23;;
8488;SDS011;4281;45.772;12.852;2023-09-19T08:12:46;16.53;;;14.67;;
8488;SDS011;4281;45.772;12.852;2023-09-19T08:15:16;15.93;;;14.10;;
8488;SDS011;4281;45.772;12.852;2023-09-19T08:17:46;17.17;;;14.63;;
8488;SDS011;4281;45.772;12.852;2023-09-19T08:20:15;17.37;;;14.23;;
8488;SDS011;4281;45.772;12.852;2023-09-19T08:22:44;15.70;;;13.40;;
8488;SDS011;4281;45.772;12.852;2023-09-19T08:25:14;17.20;;;13.17;;
8488;SDS011;4281;45.772;12.852;2023-09-19T08:27:45;15.40;;;13.77;;
8488;SDS011;4281;45.772;12.852;2023-09-19T08:30:17;16.63;;;12.67;;
8488;SDS011;4281;45.772;12.852;2023-09-19T08:32:51;15.70;;;13.03;;
8488;SDS011;4281;45.772;12.852;2023-09-19T08:35:19;13.47;;;11.40;;
8488;SDS011;4281;45.772;12.852;2023-09-19T08:37:47;17.07;;;11.83;;
8488;SDS011;4281;45.772;12.852;2023-09-19T08:40:15;14.97;;;11.53;;
8488;SDS011;4281;45.772;12.852;2023-09-19T08:42:47;16.07;;;10.97;;
8488;SDS011;4281;45.772;12.852;2023-09-19T08:45:17;15.80;;;10.80;;
8488;SDS011;4281;45.772;12.852;2023-09-19T08:47:46;13.03;;;9.97;;
8488;SDS011;4281;45.772;12.852;2023-09-19T08:50:18;12.57;;;10.20;;
8488;SDS011;4281;45.772;12.852;2023-09-19T08:52:47;12.93;;;9.47;;
8488;SDS011;4281;45.772;12.852;2023-09-19T08:55:17;12.83;;;10.53;;
8488;SDS011;4281;45.772;12.852;2023-09-19T08:57:49;11.43;;;10.13;;
8488;SDS011;4281;45.772;12.852;2023-09-19T09:00:21;17.07;;;11.23;;
8488;SDS011;4281;45.772;12.852;2023-09-19T09:02:52;17.77;;;10.17;;
8488;SDS011;4281;45.772;12.852;2023-09-19T09:05:22;15.00;;;10.07;;
8488;SDS011;4281;45.772;12.852;2023-09-19T09:07:51;13.33;;;9.73;;
8488;SDS011;4281;45.772;12.852;2023-09-19T09:10:22;12.87;;;9.87;;
8488;SDS011;4281;45.772;12.852;2023-09-19T09:12:51;13.77;;;9.33;;
8488;SDS011;4281;45.772;12.852;2023-09-19T09:15:23;12.17;;;8.33;;
8488;SDS011;4281;45.772;12.852;2023-09-19T09:17:51;11.53;;;8.57;;
8488;SDS011;4281;45.772;12.852;2023-09-19T09:20:20;10.90;;;9.23;;
8488;SDS011;4281;45.772;12.852;2023-09-19T09:22:51;17.03;;;9.40;;
8488;SDS011;4281;45.772;12.852;2023-09-19T09:25:21;9.63;;;8.20;;
8488;SDS011;4281;45.772;12.852;2023-09-19T09:28:00;10.83;;;8.40;;
8488;SDS011;4281;45.772;12.852;2023-09-19T09:30:36;13.00;;;8.23;;
8488;SDS011;4281;45.772;12.852;2023-09-19T09:33:08;11.10;;;7.43;;
8488;SDS011;4281;45.772;12.852;2023-09-19T09:35:46;11.87;;;8.47;;
8488;SDS011;4281;45.772;12.852;2023-09-19T09:38:19;12.83;;;7.90;;
8488;SDS011;4281;45.772;12.852;2023-09-19T09:40:48;9.57;;;6.93;;
8488;SDS011;4281;45.772;12.852;2023-09-19T09:43:27;11.73;;;7.83;;
8488;SDS011;4281;45.772;12.852;2023-09-19T09:46:10;9.67;;;8.07;;
8488;SDS011;4281;45.772;12.852;2023-09-19T09:48:55;10.87;;;8.37;;
8488;SDS011;4281;45.772;12.852;2023-09-19T09:51:58;9.93;;;8.33;;
8488;SDS011;4281;45.772;12.852;2023-09-19T09:54:35;11.57;;;8.10;;
8488;SDS011;4281;45.772;12.852;2023-09-19T09:57:04;13.13;;;8.83;;
8488;SDS011;4281;45.772;12.852;2023-09-19T09:59:44;10.07;;;7.57;;
8488;SDS011;4281;45.772;12.852;2023-09-19T10:02:17;10.67;;;7.37;;
8488;SDS011;4281;45.772;12.852;2023-09-19T10:04:56;12.00;;;8.10;;
8488;SDS011;4281;45.772;12.852;2023-09-19T10:07:37;13.03;;;7.97;;
8488;SDS011;4281;45.772;12.852;2023-09-19T10:10:10;12.33;;;8.33;;
8488;SDS011;4281;45.772;12.852;2023-09-19T10:12:44;12.67;;;8.47;;
8488;SDS011;4281;45.772;12.852;2023-09-19T10:15:17;15.03;;;7.50;;
8488;SDS011;4281;45.772;12.852;2023-09-19T10:17:47;13.97;;;7.77;;
8488;SDS011;4281;45.772;12.852;2023-09-19T10:20:16;9.90;;;6.83;;
8488;SDS011;4281;45.772;12.852;2023-09-19T10:23:01;8.90;;;6.40;;
8488;SDS011;4281;45.772;12.852;2023-09-19T10:25:36;10.17;;;6.53;;
8488;SDS011;4281;45.772;12.852;2023-09-19T10:28:05;9.90;;;6.53;;
8488;SDS011;4281;45.772;12.852;2023-09-19T10:30:40;9.43;;;6.57;;
8488;SDS011;4281;45.772;12.852;2023-09-19T10:33:11;9.50;;;6.80;;
8488;SDS011;4281;45.772;12.852;2023-09-19T10:35:42;10.70;;;6.67;;
8488;SDS011;4281;45.772;12.852;2023-09-19T10:38:13;9.37;;;7.00;;
8488;SDS011;4281;45.772;12.852;2023-09-19T10:40:44;10.87;;;6.63;;
8488;SDS011;4281;45.772;12.852;2023-09-19T10:43:17;9.30;;;6.63;;
8488;SDS011;4281;45.772;12.852;2023-09-19T10:45:48;9.27;;;7.13;;
8488;SDS011;4281;45.772;12.852;2023-09-19T10:48:19;9.83;;;6.73;;
8488;SDS011;4281;45.772;12.852;2023-09-19T10:50:53;7.83;;;6.17;;
8488;SDS011;4281;45.772;12.852;2023-09-19T10:53:28;10.13;;;6.30;;
8488;SDS011;4281;45.772;12.852;2023-09-19T10:55:59;8.63;;;6.33;;
8488;SDS011;4281;45.772;12.852;2023-09-19T10:58:30;8.50;;;5.83;;
8488;SDS011;4281;45.772;12.852;2023-09-19T11:01:04;11.03;;;6.40;;
8488;SDS011;4281;45.772;12.852;2023-09-19T11:03:38;8.63;;;5.73;;
8488;SDS011;4281;45.772;12.852;2023-09-19T11:06:11;9.33;;;6.17;;
8488;SDS011;4281;45.772;12.852;2023-09-19T11:08:56;7.80;;;5.50;;
8488;SDS011;4281;45.772;12.852;2023-09-19T11:11:41;8.43;;;5.27;;
8488;SDS011;4281;45.772;12.852;2023-09-19T11:14:15;9.17;;;5.63;;
8488;SDS011;4281;45.772;12.852;2023-09-19T11:23:17;7.73;;;5.67;;
8488;SDS011;4281;45.772;12.852;2023-09-19T11:25:50;8.00;;;5.63;;
8488;SDS011;4281;45.772;12.852;2023-09-19T11:28:30;8.80;;;6.10;;
8488;SDS011;4281;45.772;12.852;2023-09-19T11:34:42;7.90;;;5.47;;
8488;SDS011;4281;45.772;12.852;2023-09-19T11:40:33;6.73;;;5.43;;
8488;SDS011;4281;45.772;12.852;2023-09-19T11:48:43;9.40;;;5.73;;
8488;SDS011;4281;45.772;12.852;2023-09-19T11:51:12;11.97;;;6.57;;
8488;SDS011;4281;45.772;12.852;2023-09-19T11:53:49;10.47;;;6.40;;
8488;SDS011;4281;45.772;12.852;2023-09-19T11:56:18;8.27;;;6.00;;
8488;SDS011;4281;45.772;12.852;2023-09-19T11:58:49;8.30;;;6.37;;
8488;SDS011;4281;45.772;12.852;2023-09-19T12:01:25;11.57;;;6.90;;
8488;SDS011;4281;45.772;12.852;2023-09-19T12:03:56;8.27;;;6.03;;
8488;SDS011;4281;45.772;12.852;2023-09-19T12:06:26;10.37;;;6.90;;
8488;SDS011;4281;45.772;12.852;2023-09-19T12:08:56;10.03;;;6.10;;
8488;SDS011;4281;45.772;12.852;2023-09-19T12:11:27;7.50;;;5.83;;
8488;SDS011;4281;45.772;12.852;2023-09-19T12:14:00;10.33;;;6.23;;
8488;SDS011;4281;45.772;12.852;2023-09-19T12:16:32;8.67;;;6.20;;
8488;SDS011;4281;45.772;12.852;2023-09-19T12:21:58;12.90;;;6.63;;
8488;SDS011;4281;45.772;12.852;2023-09-19T12:24:31;11.83;;;6.90;;
8488;SDS011;4281;45.772;12.852;2023-09-19T12:26:59;12.77;;;6.93;;
8488;SDS011;4281;45.772;12.852;2023-09-19T12:29:31;12.27;;;6.90;;
8488;SDS011;4281;45.772;12.852;2023-09-19T12:32:02;11.03;;;6.77;;
8488;SDS011;4281;45.772;12.852;2023-09-19T12:34:32;10.83;;;6.90;;
8488;SDS011;4281;45.772;12.852;2023-09-19T12:37:06;11.87;;;6.93;;
8488;SDS011;4281;45.772;12.852;2023-09-19T12:39:38;11.97;;;7.10;;
8488;SDS011;4281;45.772;12.852;2023-09-19T12:42:08;12.07;;;7.03;;
8488;SDS011;4281;45.772;12.852;2023-09-19T12:44:41;10.27;;;6.53;;
8488;SDS011;4281;45.772;12.852;2023-09-19T12:47:12;10.73;;;6.60;;
8488;SDS011;4281;45.772;12.852;2023-09-19T12:52:40;11.53;;;6.90;;
8488;SDS011;4281;45.772;12.852;2023-09-19T12:55:19;12.47;;;6.60;;
8488;SDS011;4281;45.772;12.852;2023-09-19T12:58:08;9.73;;;6.27;;
8488;SDS011;4281;45.772;12.852;2023-09-19T13:00:37;11.47;;;7.03;;
8488;SDS011;4281;45.772;12.852;2023-09-19T13:03:10;10.07;;;6.13;;
8488;SDS011;4281;45.772;12.852;2023-09-19T13:05:48;10.47;;;6.20;;
8488;SDS011;4281;45.772;12.852;2023-09-19T13:08:18;11.47;;;6.07;;
8488;SDS011;4281;45.772;12.852;2023-09-19T13:11:04;11.37;;;6.10;;
8488;SDS011;4281;45.772;12.852;2023-09-19T13:13:37;10.33;;;6.10;;
8488;SDS011;4281;45.772;12.852;2023-09-19T13:16:06;9.90;;;5.90;;
8488;SDS011;4281;45.772;12.852;2023-09-19T13:18:43;9.70;;;5.70;;
8488;SDS011;4281;45.772;12.852;2023-09-19T13:21:12;7.23;;;5.30;;
8488;SDS011;4281;45.772;12.852;2023-09-19T13:23:51;10.03;;;5.30;;
8488;SDS011;4281;45.772;12.852;2023-09-19T13:26:20;8.20;;;5.20;;
8488;SDS011;4281;45.772;12.852;2023-09-19T13:28:49;8.17;;;5.00;;
8488;SDS011;4281;45.772;12.852;2023-09-19T13:31:19;9.80;;;5.37;;
8488;SDS011;4281;45.772;12.852;2023-09-19T13:33:49;8.13;;;5.13;;
8488;SDS011;4281;45.772;12.852;2023-09-19T13:36:18;7.80;;;5.00;;
8488;SDS011;4281;45.772;12.852;2023-09-19T13:38:46;6.30;;;5.07;;
8488;SDS011;4281;45.772;12.852;2023-09-19T13:41:16;9.57;;;4.97;;
8488;SDS011;4281;45.772;12.852;2023-09-19T13:43:44;8.13;;;5.10;;
8488;SDS011;4281;45.772;12.852;2023-09-19T13:46:14;10.67;;;4.90;;
8488;SDS011;4281;45.772;12.852;2023-09-19T13:48:44;8.27;;;5.00;;
8488;SDS011;4281;45.772;12.852;2023-09-19T13:51:13;10.70;;;5.20;;
8488;SDS011;4281;45.772;12.852;2023-09-19T13:53:41;8.47;;;4.87;;
8488;SDS011;4281;45.772;12.852;2023-09-19T13:56:10;8.27;;;4.40;;
8488;SDS011;4281;45.772;12.852;2023-09-19T13:58:38;8.73;;;4.97;;
8488;SDS011;4281;45.772;12.852;2023-09-19T14:01:08;7.33;;;4.40;;
8488;SDS011;4281;45.772;12.852;2023-09-19T14:03:39;8.07;;;4.60;;
8488;SDS011;4281;45.772;12.852;2023-09-19T14:06:07;10.83;;;4.83;;
8488;SDS011;4281;45.772;12.852;2023-09-19T14:08:36;8.57;;;4.63;;
8488;SDS011;4281;45.772;12.852;2023-09-19T14:11:05;8.60;;;4.17;;
8488;SDS011;4281;45.772;12.852;2023-09-19T14:13:33;9.53;;;4.57;;
8488;SDS011;4281;45.772;12.852;2023-09-19T14:16:02;14.27;;;5.30;;
8488;SDS011;4281;45.772;12.852;2023-09-19T14:18:32;22.13;;;7.53;;
8488;SDS011;4281;45.772;12.852;2023-09-19T14:21:01;26.67;;;8.70;;
8488;SDS011;4281;45.772;12.852;2023-09-19T14:23:34;17.87;;;6.50;;
8488;SDS011;4281;45.772;12.852;2023-09-19T14:26:03;14.83;;;5.83;;
8488;SDS011;4281;45.772;12.852;2023-09-19T14:28:32;17.80;;;6.40;;
8488;SDS011;4281;45.772;12.852;2023-09-19T14:31:04;12.37;;;5.67;;
8488;SDS011;4281;45.772;12.852;2023-09-19T14:33:33;11.57;;;5.57;;
8488;SDS011;4281;45.772;12.852;2023-09-19T14:36:04;10.23;;;5.40;;
8488;SDS011;4281;45.772;12.852;2023-09-19T14:38:35;10.37;;;5.30;;
8488;SDS011;4281;45.772;12.852;2023-09-19T14:41:05;10.57;;;5.03;;
8488;SDS011;4281;45.772;12.852;2023-09-19T14:43:33;10.40;;;5.53;;
8488;SDS011;4281;45.772;12.852;2023-09-19T14:46:04;8.60;;;5.53;;
8488;SDS011;4281;45.772;12.852;2023-09-19T14:48:34;12.40;;;5.53;;
8488;SDS011;4281;45.772;12.852;2023-09-19T14:51:02;10.37;;;5.53;;
8488;SDS011;4281;45.772;12.852;2023-09-19T14:53:30;9.80;;;5.83;;
8488;SDS011;4281;45.772;12.852;2023-09-19T14:55:59;13.50;;;5.93;;
8488;SDS011;4281;45.772;12.852;2023-09-19T14:58:31;11.53;;;5.77;;
8488;SDS011;4281;45.772;12.852;2023-09-19T15:01:03;11.10;;;5.10;;
8488;SDS011;4281;45.772;12.852;2023-09-19T15:03:32;9.60;;;5.20;;
8488;SDS011;4281;45.772;12.852;2023-09-19T15:06:00;10.00;;;5.37;;
8488;SDS011;4281;45.772;12.852;2023-09-19T15:08:29;13.03;;;5.80;;
8488;SDS011;4281;45.772;12.852;2023-09-19T15:10:57;10.90;;;5.50;;
8488;SDS011;4281;45.772;12.852;2023-09-19T15:13:31;8.10;;;4.53;;
8488;SDS011;4281;45.772;12.852;2023-09-19T15:15:59;8.93;;;5.13;;
8488;SDS011;4281;45.772;12.852;2023-09-19T15:18:28;8.63;;;5.23;;
8488;SDS011;4281;45.772;12.852;2023-09-19T15:21:00;8.17;;;5.23;;
8488;SDS011;4281;45.772;12.852;2023-09-19T15:23:29;9.70;;;5.53;;
8488;SDS011;4281;45.772;12.852;2023-09-19T15:25:58;9.10;;;5.53;;
8488;SDS011;4281;45.772;12.852;2023-09-19T15:28:26;10.60;;;5.10;;
8488;SDS011;4281;45.772;12.852;2023-09-19T15:30:58;11.97;;;6.03;;